createdAt,value
2019-02-09T00:01:10.254Z,99464.94
2019-02-09T00:03:39.105Z,99464.94
2019-02-09T00:06:07.804Z,99464.94
2019-02-09T00:08:36.552Z,99471.67
2019-02-09T00:11:05.559Z,99471.42
2019-02-09T00:13:35.747Z,99463.07
2019-02-09T00:16:04.862Z,99460.27
2019-02-09T00:18:33.611Z,99457.86
2019-02-09T00:21:02.297Z,99445.44
2019-02-09T00:23:31.008Z,99455.53
2019-02-09T00:25:59.750Z,99441.10
2019-02-09T00:28:29.298Z,99452.20
2019-02-09T00:30:57.962Z,99452.20
2019-02-09T00:33:26.741Z,99446.37
2019-02-09T00:35:55.429Z,99439.92
2019-02-09T00:38:24.321Z,99430.47
2019-02-09T00:40:53.021Z,99418.30
2019-02-09T00:43:22.242Z,99418.30
2019-02-09T00:45:50.941Z,99416.91
2019-02-09T00:48:19.627Z,99417.95
2019-02-09T00:50:50.662Z,99410.31
2019-02-09T00:53:19.358Z,99416.67
2019-02-09T00:55:48.025Z,99394.80
2019-02-09T00:58:16.714Z,99394.80
2019-02-09T01:00:45.360Z,99410.78
2019-02-09T01:03:14.133Z,99401.78
2019-02-09T01:05:44.635Z,99394.18
2019-02-09T01:08:13.896Z,99393.43
2019-02-09T01:10:42.645Z,99400.95
2019-02-09T01:13:11.523Z,99391.72
2019-02-09T01:15:40.220Z,99403.02
2019-02-09T01:18:11.240Z,99372.41
2019-02-09T01:20:39.956Z,99375.42
2019-02-09T01:23:09.280Z,99378.32
2019-02-09T01:25:38.070Z,99378.32
2019-02-09T01:28:06.902Z,99371.88
2019-02-09T01:30:36.756Z,99363.18
2019-02-09T01:33:07.945Z,99360.94
2019-02-09T01:35:36.650Z,99349.47
2019-02-09T01:38:05.651Z,99362.33
2019-02-09T01:40:34.335Z,99362.33
2019-02-09T01:43:03.088Z,99354.91
2019-02-09T01:45:32.921Z,99346.69
2019-02-09T01:48:01.608Z,99336.15
2019-02-09T01:50:31.269Z,99331.09
2019-02-09T01:53:00.072Z,99323.28
2019-02-09T01:55:29.516Z,99323.67
2019-02-09T01:57:58.320Z,99321.39
2019-02-09T02:00:29.050Z,99317.36
2019-02-09T02:02:57.827Z,99317.52
2019-02-09T02:05:26.592Z,99313.11
2019-02-09T02:07:55.402Z,99305.90
2019-02-09T02:10:35.182Z,99308.41
2019-02-09T02:13:04.488Z,99289.19
2019-02-09T02:15:33.241Z,99289.19
2019-02-09T02:18:01.936Z,99295.77
2019-02-09T02:20:31.293Z,99297.48
2019-02-09T02:23:01.272Z,99300.52
2019-02-09T02:25:30.027Z,99319.12
2019-02-09T02:27:58.687Z,99308.03
2019-02-09T02:30:32.097Z,99313.86
2019-02-09T02:33:00.764Z,99315.58
2019-02-09T02:35:29.556Z,99312.11
2019-02-09T02:37:58.215Z,99311.61
2019-02-09T02:40:26.929Z,99311.30
2019-02-09T02:42:55.652Z,99310.85
2019-02-09T02:45:24.440Z,99310.31
2019-02-09T02:47:53.133Z,99308.61
2019-02-09T02:50:21.832Z,99308.83
2019-02-09T02:52:50.430Z,99303.73
2019-02-09T02:55:20.767Z,99301.52
2019-02-09T02:57:50.550Z,99300.50
2019-02-09T03:00:31.676Z,99298.59
2019-02-09T03:02:54.438Z,99283.74
2019-02-09T03:05:23.793Z,99294.03
2019-02-09T03:07:52.493Z,99290.30
2019-02-09T03:10:21.276Z,99287.31
2019-02-09T03:12:49.967Z,99279.72
2019-02-09T03:15:28.998Z,99277.77
2019-02-09T03:17:57.705Z,99278.80
2019-02-09T03:20:26.450Z,99284.27
2019-02-09T03:22:55.048Z,99281.36
2019-02-09T03:25:25.548Z,99286.22
2019-02-09T03:27:54.316Z,99290.16
2019-02-09T03:30:22.939Z,99301.07
2019-02-09T03:32:51.704Z,99288.98
2019-02-09T03:35:20.476Z,99291.00
2019-02-09T03:37:49.151Z,99287.98
2019-02-09T03:40:18.861Z,99286.52
2019-02-09T03:42:47.619Z,99307.84
2019-02-09T03:45:21.349Z,99292.98
2019-02-09T03:47:49.201Z,99278.88
2019-02-09T03:50:17.876Z,99290.27
2019-02-09T03:52:46.571Z,99293.41
2019-02-09T03:55:15.313Z,99292.01
2019-02-09T03:57:44.221Z,99280.54
2019-02-09T04:00:16.023Z,99287.03
2019-02-09T04:02:44.492Z,99282.08
2019-02-09T04:05:13.245Z,99286.70
2019-02-09T04:07:41.975Z,99281.41
2019-02-09T04:10:11.579Z,99273.73
2019-02-09T04:12:40.346Z,99271.58
2019-02-09T04:15:09.698Z,99258.01
2019-02-09T04:17:38.453Z,99268.32
2019-02-09T04:20:08.595Z,99266.41
2019-02-09T04:22:37.299Z,99263.27
2019-02-09T04:25:06.246Z,99261.00
2019-02-09T04:27:37.290Z,99254.82
2019-02-09T04:30:10.386Z,99244.08
2019-02-09T04:32:38.753Z,99243.48
2019-02-09T04:35:07.713Z,99246.31
2019-02-09T04:37:36.402Z,99232.26
2019-02-09T04:40:06.562Z,99221.31
2019-02-09T04:42:35.279Z,99231.86
2019-02-09T04:45:04.114Z,99243.09
2019-02-09T04:47:32.790Z,99250.80
2019-02-09T04:50:01.484Z,99245.70
2019-02-09T04:52:30.208Z,99243.59
2019-02-09T04:54:58.965Z,99252.55
2019-02-09T04:57:27.640Z,99258.84
2019-02-09T04:59:56.700Z,99263.14
2019-02-09T05:02:27.481Z,99268.72
2019-02-09T05:04:56.126Z,99258.05
2019-02-09T05:07:25.478Z,99266.89
2019-02-09T05:09:54.473Z,99275.93
2019-02-09T05:12:23.160Z,99267.92
2019-02-09T05:14:51.874Z,99268.52
2019-02-09T05:17:20.530Z,99271.08
2019-02-09T05:19:50.180Z,99262.91
2019-02-09T05:22:18.866Z,99268.01
2019-02-09T05:24:47.548Z,99269.84
2019-02-09T05:27:16.252Z,99274.42
2019-02-09T05:29:44.843Z,99267.53
2019-02-09T05:32:15.625Z,99266.22
2019-02-09T05:34:44.350Z,99269.48
2019-02-09T05:37:13.061Z,99271.80
2019-02-09T05:39:41.748Z,99275.42
2019-02-09T05:42:10.468Z,99281.52
2019-02-09T05:44:39.115Z,99280.19
2019-02-09T05:47:08.986Z,99282.62
2019-02-09T05:49:37.695Z,99284.02
2019-02-09T05:52:08.654Z,99288.33
2019-02-09T05:54:37.310Z,99293.90
2019-02-09T05:57:05.975Z,99286.17
2019-02-09T05:59:34.714Z,99292.50
2019-02-09T06:02:03.457Z,99295.56
2019-02-09T06:04:32.145Z,99301.50
2019-02-09T06:07:00.843Z,99305.77
2019-02-09T06:09:29.583Z,99294.17
2019-02-09T06:11:58.578Z,99297.12
2019-02-09T06:14:27.311Z,99298.48
2019-02-09T06:16:55.993Z,99300.87
2019-02-09T06:19:24.703Z,99311.10
2019-02-09T06:21:53.439Z,99310.19
2019-02-09T06:24:22.138Z,99320.38
2019-02-09T06:26:50.806Z,99314.25
2019-02-09T06:29:19.513Z,99322.69
2019-02-09T06:31:48.277Z,99336.71
2019-02-09T06:34:16.910Z,99335.48
2019-02-09T06:36:45.543Z,99328.59
2019-02-09T06:39:14.170Z,99331.97
2019-02-09T06:41:42.855Z,99330.22
2019-02-09T06:44:11.549Z,99347.00
2019-02-09T06:46:41.502Z,99320.72
2019-02-09T06:49:10.210Z,99336.34
2019-02-09T06:51:38.920Z,99345.68
2019-02-09T06:54:07.526Z,99350.21
2019-02-09T06:56:36.278Z,99365.36
2019-02-09T06:59:04.924Z,99369.75
2019-02-09T07:01:33.685Z,99358.23
2019-02-09T07:04:02.372Z,99367.07
2019-02-09T07:06:31.056Z,99367.03
2019-02-09T07:08:59.758Z,99379.55
2019-02-09T07:11:28.518Z,99375.69
2019-02-09T07:13:57.239Z,99381.65
2019-02-09T07:16:38.332Z,99386.52
2019-02-09T07:19:07.981Z,99389.23
2019-02-09T07:21:36.735Z,99384.92
2019-02-09T07:24:05.567Z,99397.64
2019-02-09T07:26:34.129Z,99397.64
2019-02-09T07:29:02.641Z,99401.66
2019-02-09T07:31:31.129Z,99393.63
2019-02-09T07:34:01.176Z,99401.45
2019-02-09T08:29:28.642Z,99450.99
2019-02-09T08:59:10.103Z,99470.41
2019-02-09T09:31:37.759Z,99502.15
2019-02-09T09:36:48.320Z,99508.31
2019-02-09T09:39:17.005Z,99508.31
2019-02-09T09:41:45.731Z,99497.23
2019-02-09T09:44:19.433Z,99497.23
2019-02-09T09:46:49.487Z,99508.92
2019-02-09T09:49:22.858Z,99524.17
2019-02-09T09:51:59.165Z,99538.90
2019-02-09T09:54:28.029Z,99518.50
2019-02-09T09:57:43.432Z,99509.75
2019-02-09T10:03:11.119Z,99513.17
2019-02-09T10:05:47.090Z,99519.84
2019-02-09T10:08:31.219Z,99519.84
2019-02-09T10:14:19.584Z,99517.80
2019-02-09T10:20:22.597Z,99523.38
2019-02-09T10:28:36.389Z,99537.29
2019-02-09T10:48:40.589Z,99569.17
2019-02-09T10:51:10.402Z,99560.23
2019-02-09T10:53:39.188Z,99549.13
2019-02-09T10:56:08.506Z,99557.27
2019-02-09T10:58:37.406Z,99561.20
2019-02-09T11:01:20.010Z,99554.77
2019-02-09T11:03:48.887Z,99570.11
2019-02-09T11:06:17.689Z,99554.56
2019-02-09T11:08:46.487Z,99560.56
2019-02-09T11:11:15.316Z,99554.08
2019-02-09T11:13:44.121Z,99549.06
2019-02-09T11:16:13.059Z,99566.77
2019-02-09T11:18:41.863Z,99560.17
2019-02-09T11:21:13.212Z,99558.73
2019-02-09T11:23:42.663Z,99553.09
2019-02-09T11:26:11.782Z,99559.37
2019-02-09T11:28:41.023Z,99553.72
2019-02-09T11:31:19.348Z,99553.72
2019-02-09T11:33:43.950Z,99552.72
2019-02-09T11:36:12.819Z,99548.12
2019-02-09T11:38:42.039Z,99550.77
2019-02-09T11:41:11.098Z,99575.39
2019-02-09T11:43:39.970Z,99570.41
2019-02-09T11:46:11.443Z,99562.08
2019-02-09T11:48:40.713Z,99572.39
2019-02-09T11:54:54.744Z,99563.86
2019-02-09T11:57:23.441Z,99572.81
2019-02-09T11:59:52.374Z,99554.41
2019-02-09T12:02:21.649Z,99568.73
2019-02-09T12:04:50.191Z,99565.48
2019-02-09T12:07:19.050Z,99564.61
2019-02-09T12:09:47.827Z,99577.83
2019-02-09T12:12:22.617Z,99567.76
2019-02-09T12:14:51.859Z,99567.22
2019-02-09T12:17:20.608Z,99561.02
2019-02-09T12:19:49.429Z,99551.77
2019-02-09T12:22:17.934Z,99557.60
2019-02-09T12:24:46.412Z,99529.46
2019-02-09T12:27:18.775Z,99552.52
2019-02-09T12:29:47.458Z,99533.48
2019-02-09T12:32:17.398Z,99560.45
2019-02-09T12:34:45.972Z,99560.45
2019-02-09T12:37:20.834Z,99554.53
2019-02-09T12:39:52.806Z,99549.98
2019-02-09T12:42:21.457Z,99562.18
2019-02-09T12:44:50.061Z,99561.45
2019-02-09T12:47:18.727Z,99534.63
2019-02-09T12:49:47.357Z,99534.63
2019-02-09T12:52:15.987Z,99542.74
2019-02-09T12:54:44.536Z,99547.83
